Time;durP1;ratioP1;P1;durP2;ratioP2;P2;SDS_P1;SDS_P2;PMS_P1;PMS_P2;Temp;Humidity;BMP_temperature;BMP_pressure;BME280_temperature;BME280_humidity;BME280_pressure;Samples;Min_cycle;Max_cycle;Signal;HPM_P1;HPM_P2
2022/06/28 00:00:05;;;;;;;6.50;4.57;;;;;;;21.96;64.98;100719.03;5043365;28;20056;-89
2022/06/28 00:02:31;;;;;;;8.70;5.03;;;;;;;21.90;65.22;100718.09;5058349;28;20040;-89
2022/06/28 00:04:57;;;;;;;8.65;4.63;;;;;;;21.93;64.88;100720.34;5075939;28;20198;-89
2022/06/28 00:07:23;;;;;;;10.45;4.80;;;;;;;21.96;64.50;100719.91;5061445;28;20036;-89
2022/06/28 00:09:49;;;;;;;9.25;4.60;;;;;;;21.90;64.10;100716.19;5074028;28;20405;-88
2022/06/28 00:12:15;;;;;;;8.13;4.45;;;;;;;21.91;63.85;100709.66;5063097;28;20056;-93
2022/06/28 00:17:24;;;;;;;8.25;4.47;;;;;;;21.91;63.19;100698.69;5078725;28;20059;-89
2022/06/28 00:19:50;;;;;;;9.82;4.43;;;;;;;21.99;63.05;100710.38;5088230;28;20416;-92
2022/06/28 00:22:15;;;;;;;5.43;4.20;;;;;;;22.04;62.19;100708.59;5055863;28;20044;-89
2022/06/28 00:24:42;;;;;;;6.80;4.10;;;;;;;22.05;61.80;100702.03;5057490;28;20025;-89
2022/06/28 00:27:09;;;;;;;8.88;4.40;;;;;;;22.05;62.01;100703.94;5081138;28;20056;-88
2022/06/28 00:29:35;;;;;;;7.60;4.18;;;;;;;22.10;62.00;100704.06;5081298;28;20039;-91
2022/06/28 00:32:00;;;;;;;8.63;4.15;;;;;;;22.05;61.70;100695.72;5055948;28;20492;-89
2022/06/28 00:34:28;;;;;;;7.30;4.40;;;;;;;22.04;61.69;100689.44;5075495;28;20097;-89
2022/06/28 00:36:54;;;;;;;5.68;3.85;;;;;;;22.10;61.41;100693.09;5054122;28;20052;-89
2022/06/28 00:39:20;;;;;;;8.82;3.90;;;;;;;22.09;61.08;100699.66;5071777;28;20032;-90
2022/06/28 00:41:45;;;;;;;6.47;3.90;;;;;;;22.09;61.53;100696.94;5022053;28;20036;-89
2022/06/28 00:44:12;;;;;;;9.45;4.00;;;;;;;22.16;60.79;100696.81;5052882;28;20109;-89
2022/06/28 00:46:38;;;;;;;6.32;3.88;;;;;;;22.05;60.76;100687.50;5073537;28;20024;-89
2022/06/28 00:49:04;;;;;;;8.80;4.15;;;;;;;22.02;61.17;100688.00;5039112;28;20060;-90
2022/06/28 00:51:30;;;;;;;9.50;3.90;;;;;;;22.07;62.05;100707.28;5048775;28;20029;-90
2022/06/28 00:53:56;;;;;;;6.30;4.00;;;;;;;22.08;61.97;100706.22;5039838;28;20059;-89
2022/06/28 00:56:22;;;;;;;9.63;4.35;;;;;;;22.10;61.97;100710.41;5054107;28;20044;-89
2022/06/28 00:58:48;;;;;;;10.50;4.10;;;;;;;21.95;61.94;100690.84;5060986;28;20036;-89
2022/06/28 01:01:14;;;;;;;7.53;4.25;;;;;;;22.04;61.82;100715.97;5058082;28;20045;-90
2022/06/28 01:03:40;;;;;;;8.73;4.50;;;;;;;22.14;61.92;100724.44;5037874;28;20048;-88
2022/06/28 01:06:07;;;;;;;8.20;3.85;;;;;;;22.08;61.62;100720.75;5039739;28;20036;-89
2022/06/28 01:08:34;;;;;;;6.35;4.13;;;;;;;22.10;61.42;100726.81;5045718;28;20036;-90
2022/06/28 01:11:18;;;;;;;9.48;4.28;;;;;;;22.12;61.33;100729.31;5044710;28;20044;-88
2022/06/28 01:13:45;;;;;;;7.70;4.25;;;;;;;22.02;61.55;100724.41;5045620;28;20044;-88
2022/06/28 01:16:11;;;;;;;7.15;4.30;;;;;;;22.10;61.38;100732.28;5065089;28;20040;-89
2022/06/28 01:18:36;;;;;;;7.25;4.05;;;;;;;21.98;61.39;100734.16;5086597;28;20056;-89
2022/06/28 01:21:02;;;;;;;9.57;4.00;;;;;;;22.08;61.30;100734.44;5037336;28;20044;-91
2022/06/28 01:23:28;;;;;;;8.63;4.05;;;;;;;22.04;61.26;100735.13;5060253;28;20051;-89
2022/06/28 01:25:55;;;;;;;6.57;4.15;;;;;;;22.06;61.09;100733.81;5056916;28;20045;-90
2022/06/28 01:28:20;;;;;;;8.00;4.10;;;;;;;21.99;61.27;100741.31;5066232;28;20061;-89
2022/06/28 01:30:46;;;;;;;6.63;3.60;;;;;;;21.85;60.81;100724.25;5086637;28;20043;-88
2022/06/28 01:33:11;;;;;;;6.65;3.70;;;;;;;22.00;60.94;100742.97;5061611;28;20028;-89
2022/06/28 01:35:36;;;;;;;6.47;3.70;;;;;;;22.03;60.81;100734.31;5070903;28;20032;-88
2022/06/28 01:38:03;;;;;;;9.80;3.65;;;;;;;22.04;60.69;100738.69;5053516;28;20468;-89
2022/06/28 01:40:33;;;;;;;9.50;4.00;;;;;;;22.05;60.93;100739.53;5022918;28;20036;-89
2022/06/28 01:43:03;;;;;;;6.35;3.90;;;;;;;22.05;60.09;100743.09;5064045;28;20039;-90
2022/06/28 01:45:54;;;;;;;9.18;3.70;;;;;;;22.03;60.21;100734.31;5079477;28;20028;-86
2022/06/28 01:48:26;;;;;;;12.95;3.80;;;;;;;21.95;60.53;100723.69;5061439;28;20047;-88
2022/06/28 01:50:54;;;;;;;11.98;3.75;;;;;;;21.90;60.09;100709.88;5034433;28;20086;-89
2022/06/28 01:53:20;;;;;;;6.13;3.47;;;;;;;21.93;60.11;100731.28;5037151;28;20048;-88
2022/06/28 01:55:46;;;;;;;12.07;3.58;;;;;;;21.99;60.18;100735.00;5055144;28;20040;-87
2022/06/28 01:58:12;;;;;;;12.68;3.60;;;;;;;22.00;60.12;100725.72;5054308;28;20508;-88
2022/06/28 02:00:37;;;;;;;9.77;3.78;;;;;;;21.81;60.20;100703.06;5035317;28;20048;-88
2022/06/28 02:03:03;;;;;;;9.27;3.70;;;;;;;21.92;60.26;100718.69;5033504;28;20123;-87
2022/06/28 02:05:29;;;;;;;8.63;3.60;;;;;;;21.98;60.16;100716.91;5044770;28;20036;-88
2022/06/28 02:07:55;;;;;;;6.10;3.63;;;;;;;22.07;60.13;100732.75;5077441;28;20021;-88
2022/06/28 02:10:24;;;;;;;7.85;3.80;;;;;;;22.04;60.22;100719.53;5076207;28;20086;-86
2022/06/28 02:12:49;;;;;;;5.32;3.60;;;;;;;22.00;60.15;100714.78;5051581;28;20106;-87
2022/06/28 02:15:15;;;;;;;7.35;3.80;;;;;;;21.93;60.53;100725.81;5074913;28;20036;-88
2022/06/28 02:17:44;;;;;;;6.40;4.03;;;;;;;21.86;60.66;100708.66;5056028;28;20036;-86
2022/06/28 02:20:10;;;;;;;7.72;4.00;;;;;;;21.96;61.00;100719.91;5092709;28;20028;-87
2022/06/28 02:22:36;;;;;;;8.68;3.53;;;;;;;21.99;60.74;100719.41;5075756;28;20041;-85
2022/06/28 02:25:02;;;;;;;6.50;3.75;;;;;;;21.89;60.95;100713.66;5074753;28;20536;-87
2022/06/28 02:27:27;;;;;;;7.45;4.05;;;;;;;21.93;60.99;100717.59;5036822;28;20039;-87
2022/06/28 02:29:53;;;;;;;9.75;3.70;;;;;;;21.92;61.36;100711.31;5083328;28;20029;-86
2022/06/28 02:32:18;;;;;;;6.22;3.80;;;;;;;21.90;61.22;100715.34;5075249;28;20048;-87
2022/06/28 02:40:21;;;;;;;7.80;3.85;;;;;;;21.97;61.04;100731.66;5055508;28;20055;-89
2022/06/28 02:42:57;;;;;;;9.63;4.05;;;;;;;21.79;61.57;100718.88;5071071;28;20036;-89
2022/06/28 02:45:26;;;;;;;9.60;4.07;;;;;;;21.98;61.03;100736.88;5033509;28;20102;-89
2022/06/28 02:47:51;;;;;;;6.25;4.10;;;;;;;21.98;60.85;100731.41;5053204;28;20036;-87
2022/06/28 02:50:17;;;;;;;7.05;3.85;;;;;;;21.89;61.53;100724.59;5029210;28;20033;-88
2022/06/28 02:52:43;;;;;;;10.88;4.00;;;;;;;21.97;61.25;100737.97;5036133;28;20033;-89
2022/06/28 02:55:08;;;;;;;7.47;3.88;;;;;;;21.88;60.91;100717.47;5032857;28;20452;-89
2022/06/28 02:57:35;;;;;;;6.80;3.80;;;;;;;22.08;60.85;100741.81;5050317;28;20029;-90
2022/06/28 03:00:02;;;;;;;9.55;3.80;;;;;;;21.90;60.72;100724.38;5051954;28;20678;-89
2022/06/28 03:02:27;;;;;;;8.75;3.88;;;;;;;21.90;60.89;100742.72;5052809;28;20435;-87
2022/06/28 03:04:53;;;;;;;8.68;3.70;;;;;;;21.95;60.63;100748.31;5041509;28;20050;-86
2022/06/28 03:07:18;;;;;;;7.38;3.88;;;;;;;21.93;60.64;100753.19;5074691;28;20157;-86
2022/06/28 03:09:44;;;;;;;6.32;3.80;;;;;;;21.96;60.82;100755.47;5056407;28;20417;-87
2022/06/28 03:12:10;;;;;;;6.05;3.67;;;;;;;21.92;60.51;100740.59;5056059;28;20105;-87
2022/06/28 03:14:36;;;;;;;10.55;3.80;;;;;;;22.02;60.79;100759.16;5074251;28;20021;-86
2022/06/28 03:17:01;;;;;;;8.52;3.90;;;;;;;21.99;60.49;100762.38;5073797;28;20051;-87
2022/06/28 03:19:27;;;;;;;5.78;3.40;;;;;;;22.06;60.22;100758.47;5073321;28;20029;-87
2022/06/28 03:21:52;;;;;;;7.10;3.70;;;;;;;22.10;60.48;100769.75;5084579;28;20036;-86
2022/06/28 03:24:18;;;;;;;9.75;3.47;;;;;;;22.11;59.92;100769.53;5047098;28;20055;-87
2022/06/28 03:26:43;;;;;;;4.78;3.30;;;;;;;22.11;59.47;100765.97;5057309;28;20056;-87
2022/06/28 03:29:09;;;;;;;8.73;3.70;;;;;;;22.15;59.38;100778.13;5056069;28;20139;-88
2022/06/28 03:31:34;;;;;;;6.28;4.00;;;;;;;22.02;59.49;100768.22;5066377;28;20062;-86
2022/06/28 03:34:00;;;;;;;8.55;3.67;;;;;;;22.11;59.69;100772.28;5069014;28;20504;-85
2022/06/28 03:36:25;;;;;;;10.20;3.97;;;;;;;22.18;59.20;100785.03;5088633;28;20040;-84
2022/06/28 03:38:51;;;;;;;7.10;3.63;;;;;;;22.22;59.25;100789.00;5066614;28;20021;-86
2022/06/28 03:41:22;;;;;;;12.32;3.75;;;;;;;22.19;59.22;100789.44;5068074;28;20033;-86
2022/06/28 03:43:51;;;;;;;10.43;3.63;;;;;;;22.22;59.09;100794.47;5070573;28;20035;-87
2022/06/28 03:46:17;;;;;;;6.18;3.53;;;;;;;22.30;58.55;100785.94;5086501;28;20093;-86
2022/06/28 03:48:43;;;;;;;10.00;3.63;;;;;;;22.33;59.20;100797.22;5069084;28;20045;-87
2022/06/28 03:51:09;;;;;;;5.00;3.53;;;;;;;22.42;58.76;100805.94;5058640;28;20469;-87
2022/06/28 03:53:35;;;;;;;11.38;3.78;;;;;;;22.48;58.07;100787.75;5040115;28;20539;-86
2022/06/28 03:56:00;;;;;;;9.95;3.72;;;;;;;22.60;58.04;100804.19;5075316;28;20055;-87
2022/06/28 03:58:26;;;;;;;8.20;3.72;;;;;;;22.69;57.92;100811.81;5073750;28;20063;-86
2022/06/28 04:00:52;;;;;;;7.53;3.42;;;;;;;22.68;57.78;100809.31;5058338;28;20036;-87
2022/06/28 04:03:19;;;;;;;7.07;3.70;;;;;;;22.89;57.62;100822.41;5028601;28;20059;-87
2022/06/28 04:05:45;;;;;;;7.72;3.40;;;;;;;22.75;57.73;100802.63;5058559;28;20092;-89
2022/06/28 04:08:11;;;;;;;6.60;3.72;;;;;;;22.87;57.62;100823.72;5048039;28;20114;-87
2022/06/28 04:10:36;;;;;;;7.38;3.70;;;;;;;23.00;57.12;100828.19;5024774;28;20060;-89
2022/06/28 04:13:02;;;;;;;7.80;3.75;;;;;;;23.04;57.43;100821.13;5047697;28;20044;-88
2022/06/28 04:15:28;;;;;;;9.55;3.85;;;;;;;23.11;56.73;100819.13;5032017;28;20029;-86
2022/06/28 04:17:53;;;;;;;8.82;3.47;;;;;;;23.22;56.17;100804.53;5038136;28;20055;-85
2022/06/28 04:20:19;;;;;;;10.43;3.78;;;;;;;23.34;56.21;100810.84;5055318;28;20109;-87
2022/06/28 04:22:45;;;;;;;9.75;3.80;;;;;;;23.55;55.55;100820.34;5064591;28;20043;-87
2022/06/28 04:25:10;;;;;;;8.90;3.55;;;;;;;23.61;55.17;100807.53;5067650;28;20033;-87
2022/06/28 04:27:36;;;;;;;8.55;3.40;;;;;;;23.65;55.50;100811.47;5074312;28;20485;-89
2022/06/28 04:30:03;;;;;;;9.10;4.00;;;;;;;23.82;55.32;100811.53;5041494;28;20036;-87
2022/06/28 04:32:29;;;;;;;8.52;4.15;;;;;;;24.05;54.68;100810.59;5065934;28;20094;-87
2022/06/28 04:34:55;;;;;;;14.00;3.70;;;;;;;24.10;53.83;100821.69;5085532;28;20033;-87
2022/06/28 04:37:20;;;;;;;10.13;3.72;;;;;;;24.10;53.46;100799.72;5053894;28;20113;-87
2022/06/28 04:39:46;;;;;;;9.32;3.53;;;;;;;24.28;53.17;100822.53;5055129;28;20156;-87
2022/06/28 04:42:12;;;;;;;7.65;4.00;;;;;;;24.39;52.66;100803.22;5072743;28;20258;-87
2022/06/28 04:44:38;;;;;;;9.90;3.70;;;;;;;24.64;52.61;100827.56;5039299;28;20040;-86
2022/06/28 04:47:04;;;;;;;10.82;3.75;;;;;;;24.79;52.31;100828.88;5022454;28;20476;-87
2022/06/28 04:49:30;;;;;;;7.10;3.70;;;;;;;24.97;51.83;100825.88;5053915;28;20036;-84
2022/06/28 04:51:55;;;;;;;14.32;4.78;;;;;;;25.10;51.71;100829.34;5072422;28;20047;-88
2022/06/28 04:54:23;;;;;;;6.28;3.90;;;;;;;25.24;51.07;100836.19;5072649;28;20074;-86
2022/06/28 04:56:49;;;;;;;10.73;3.85;;;;;;;25.43;50.70;100834.78;5061803;28;20024;-87
2022/06/28 04:59:15;;;;;;;9.65;3.70;;;;;;;25.62;50.75;100839.97;5073154;28;20037;-88
2022/06/28 05:01:40;;;;;;;10.82;3.83;;;;;;;25.76;50.41;100832.16;5082089;28;20033;-88
2022/06/28 05:04:06;;;;;;;9.18;4.05;;;;;;;25.98;49.76;100838.47;5035555;28;20051;-86
2022/06/28 05:06:34;;;;;;;4.97;3.80;;;;;;;26.10;49.00;100832.81;5054079;28;20147;-86
2022/06/28 05:09:00;;;;;;;6.38;4.30;;;;;;;26.30;49.22;100835.78;5053933;28;20488;-86
2022/06/28 05:11:26;;;;;;;11.57;3.90;;;;;;;26.46;49.14;100838.69;5072187;28;20074;-88
2022/06/28 05:13:51;;;;;;;8.02;3.90;;;;;;;26.71;48.27;100860.13;5054253;28;20033;-87
2022/06/28 05:16:17;;;;;;;9.27;3.60;;;;;;;26.87;47.56;100853.63;5053615;28;20119;-87
2022/06/28 05:18:43;;;;;;;10.52;4.68;;;;;;;27.02;47.03;100861.19;5015416;28;20068;-88
2022/06/28 05:21:10;;;;;;;8.48;3.85;;;;;;;27.12;46.97;100849.38;5054108;28;20037;-87
2022/06/28 05:23:39;;;;;;;7.03;3.97;;;;;;;27.20;45.72;100834.28;5050218;28;20472;-87
2022/06/28 05:26:06;;;;;;;8.18;3.75;;;;;;;27.34;45.43;100846.50;5068638;28;20044;-87
2022/06/28 05:28:33;;;;;;;7.82;4.10;;;;;;;27.47;45.47;100842.44;5036351;28;20032;-88
2022/06/28 05:30:59;;;;;;;10.02;4.00;;;;;;;27.39;45.44;100843.75;5041363;28;20053;-89
2022/06/28 05:33:24;;;;;;;6.70;3.90;;;;;;;27.41;45.59;100846.25;5088963;28;20041;-89
2022/06/28 05:35:50;;;;;;;10.40;3.97;;;;;;;27.38;45.33;100858.66;5050883;28;20037;-88
2022/06/28 05:38:16;;;;;;;6.57;3.80;;;;;;;27.37;45.29;100854.25;5015025;28;20033;-89
2022/06/28 05:40:42;;;;;;;7.80;3.40;;;;;;;27.56;44.93;100858.19;5051494;28;20476;-93
2022/06/28 05:43:11;;;;;;;7.07;3.70;;;;;;;27.62;44.87;100859.03;5021173;28;20050;-93
2022/06/28 05:45:37;;;;;;;10.60;3.90;;;;;;;27.68;43.97;100848.84;5023109;28;20052;-85
2022/06/28 05:48:03;;;;;;;7.07;3.45;;;;;;;27.77;44.27;100852.75;5067837;28;20025;-87
2022/06/28 05:50:31;;;;;;;9.38;3.30;;;;;;;27.92;43.51;100846.47;5050462;28;20119;-85
2022/06/28 05:53:06;;;;;;;7.43;3.58;;;;;;;28.10;43.69;100850.66;5035831;28;20425;-84
2022/06/28 05:55:41;;;;;;;9.02;3.85;;;;;;;28.26;43.47;100851.50;5045578;28;20049;-87
2022/06/28 05:58:06;;;;;;;12.38;3.63;;;;;;;28.35;42.90;100850.69;5034121;28;20041;-86
2022/06/28 06:00:34;;;;;;;6.43;3.65;;;;;;;28.35;41.97;100825.81;5050177;28;20055;-84
2022/06/28 06:03:00;;;;;;;8.43;3.22;;;;;;;28.55;41.81;100846.31;5051093;28;20481;-86
2022/06/28 06:05:25;;;;;;;17.02;4.53;;;;;;;28.65;42.01;100840.75;5027208;28;20041;-87
2022/06/28 06:07:51;;;;;;;8.40;3.63;;;;;;;28.91;41.68;100849.84;5051461;28;20055;-86
2022/06/28 06:10:17;;;;;;;6.60;3.40;;;;;;;29.11;41.29;100848.22;5048883;28;20175;-86
2022/06/28 06:12:42;;;;;;;8.63;3.53;;;;;;;29.11;40.47;100846.28;5032581;28;20021;-85
2022/06/28 06:15:08;;;;;;;9.02;3.58;;;;;;;29.22;40.85;100847.91;5051347;28;20039;-86
2022/06/28 06:17:34;;;;;;;12.38;4.40;;;;;;;29.53;40.38;100853.34;5050962;28;20447;-87
2022/06/28 06:19:59;;;;;;;7.38;3.55;;;;;;;29.82;40.01;100856.25;5032984;28;20068;-86
2022/06/28 06:22:25;;;;;;;7.72;3.65;;;;;;;29.89;39.09;100847.63;5047585;28;20409;-84
2022/06/28 06:24:50;;;;;;;9.85;3.78;;;;;;;29.96;38.59;100850.91;5058327;28;20041;-84
2022/06/28 06:27:16;;;;;;;8.68;3.42;;;;;;;29.99;38.48;100844.81;5060752;28;20032;-86
2022/06/28 06:29:42;;;;;;;9.60;3.50;;;;;;;30.20;38.42;100839.94;5051885;28;20086;-86
2022/06/28 06:32:10;;;;;;;8.38;3.13;;;;;;;30.15;37.70;100847.47;5049086;28;20033;-85
2022/06/28 06:34:35;;;;;;;14.57;3.60;;;;;;;30.09;38.54;100850.28;5037547;28;20037;-86
2022/06/28 06:37:01;;;;;;;6.88;3.28;;;;;;;30.11;38.38;100838.94;5060875;28;20043;-84
2022/06/28 06:39:27;;;;;;;8.82;3.22;;;;;;;30.30;37.92;100850.19;5046869;28;20325;-86
2022/06/28 06:41:52;;;;;;;9.45;3.45;;;;;;;30.38;37.14;100851.50;5053390;28;20496;-85
2022/06/28 06:44:18;;;;;;;13.10;3.95;;;;;;;30.80;36.56;100847.25;5051450;28;20044;-85
2022/06/28 06:46:44;;;;;;;6.60;3.58;;;;;;;30.80;36.18;100841.72;5020040;28;20029;-85
2022/06/28 06:49:09;;;;;;;8.50;3.20;;;;;;;31.02;35.09;100857.88;5054675;28;20032;-85
2022/06/28 06:51:35;;;;;;;7.22;3.15;;;;;;;30.90;35.20;100856.34;5054216;28;20565;-85
2022/06/28 06:54:01;;;;;;;8.93;3.55;;;;;;;30.92;35.26;100856.03;5036626;28;20041;-84
2022/06/28 06:56:27;;;;;;;6.53;2.83;;;;;;;31.11;35.56;100858.91;5036675;28;20025;-85
2022/06/28 06:58:53;;;;;;;7.88;3.05;;;;;;;31.08;34.80;100867.84;5053362;28;20087;-84
2022/06/28 07:01:22;;;;;;;7.13;3.08;;;;;;;31.13;34.63;100862.22;5053327;28;20416;-87
2022/06/28 07:03:48;;;;;;;5.10;3.10;;;;;;;31.32;34.46;100845.63;5054820;28;20033;-84
2022/06/28 07:06:14;;;;;;;6.20;3.08;;;;;;;31.38;33.99;100849.19;5053156;28;20048;-86
2022/06/28 07:08:40;;;;;;;7.50;3.13;;;;;;;31.67;33.85;100844.38;5053428;28;20024;-87
2022/06/28 07:11:06;;;;;;;7.80;3.20;;;;;;;32.25;33.12;100851.63;5045157;28;20041;-84
2022/06/28 07:13:40;;;;;;;7.25;3.10;;;;;;;32.30;32.40;100850.72;5034799;28;20056;-84
2022/06/28 07:16:06;;;;;;;6.40;3.05;;;;;;;32.68;32.10;100856.25;5018675;28;20037;-85
2022/06/28 07:18:32;;;;;;;6.70;3.05;;;;;;;32.91;31.13;100846.09;5054322;28;20459;-86
2022/06/28 07:20:58;;;;;;;13.30;3.80;;;;;;;33.11;31.12;100836.56;5017889;28;20046;-85
2022/06/28 07:23:24;;;;;;;6.80;3.05;;;;;;;33.60;30.87;100848.97;5051732;28;20026;-84
2022/06/28 07:25:49;;;;;;;11.73;3.15;;;;;;;33.85;30.27;100856.75;5057451;28;20088;-87
2022/06/28 07:28:15;;;;;;;7.97;3.10;;;;;;;34.14;30.04;100852.78;5028529;28;20041;-87
2022/06/28 07:30:42;;;;;;;8.73;3.20;;;;;;;34.22;30.25;100840.88;5044711;28;20040;-86
2022/06/28 07:33:09;;;;;;;6.30;3.10;;;;;;;34.89;29.24;100856.78;5051502;28;20025;-85
2022/06/28 07:35:35;;;;;;;6.20;2.75;;;;;;;35.35;28.14;100851.91;5032442;28;20041;-86
2022/06/28 07:38:00;;;;;;;6.03;2.97;;;;;;;35.71;27.91;100857.31;5067332;28;20380;-85
2022/06/28 07:40:26;;;;;;;10.75;2.97;;;;;;;35.65;27.19;100839.03;5035853;28;20063;-85
2022/06/28 07:42:51;;;;;;;8.00;2.78;;;;;;;35.49;27.52;100854.56;5055437;28;20043;-85
2022/06/28 07:45:17;;;;;;;6.43;2.60;;;;;;;35.54;26.81;100850.81;5054713;28;20040;-86
2022/06/28 07:47:47;;;;;;;9.88;2.80;;;;;;;35.50;27.10;100837.50;5052663;28;20037;-85
2022/06/28 07:53:02;;;;;;;8.80;2.70;;;;;;;34.73;27.19;100841.59;5039146;28;20508;-86
2022/06/28 07:55:27;;;;;;;8.43;4.45;;;;;;;34.77;27.66;100856.56;5034021;28;20136;-86
2022/06/28 07:57:53;;;;;;;7.82;4.43;;;;;;;34.48;27.79;100840.25;5053156;28;20060;-85
2022/06/28 08:00:21;;;;;;;12.93;3.30;;;;;;;34.77;28.02;100858.50;5052752;28;20021;-85
2022/06/28 08:02:49;;;;;;;9.95;3.13;;;;;;;34.81;27.70;100842.78;5052681;28;20032;-85
2022/06/28 08:05:15;;;;;;;8.38;3.00;;;;;;;35.30;26.53;100843.66;5051856;28;20137;-85
2022/06/28 08:07:41;;;;;;;6.85;2.70;;;;;;;34.79;26.92;100847.84;5013185;28;20225;-85
2022/06/28 08:10:07;;;;;;;9.02;2.90;;;;;;;34.48;27.12;100835.47;5047763;28;20064;-85
2022/06/28 08:12:32;;;;;;;8.38;2.53;;;;;;;34.24;27.57;100848.94;5046621;28;20049;-84
2022/06/28 08:14:58;;;;;;;15.43;2.90;;;;;;;34.68;26.93;100838.94;5052876;28;20167;-85
2022/06/28 08:17:24;;;;;;;8.32;2.90;;;;;;;35.05;27.13;100834.84;5051404;28;20029;-84
2022/06/28 08:19:49;;;;;;;18.80;3.75;;;;;;;35.48;26.70;100825.81;5040832;28;20063;-85
2022/06/28 08:22:15;;;;;;;15.43;2.90;;;;;;;35.61;26.32;100842.78;5053131;28;20338;-85
2022/06/28 08:24:40;;;;;;;16.38;3.10;;;;;;;35.43;25.85;100842.75;5050980;28;20033;-84
2022/06/28 08:27:06;;;;;;;6.75;2.83;;;;;;;35.47;25.34;100829.75;5053807;28;20110;-85
2022/06/28 08:29:32;;;;;;;11.15;2.90;;;;;;;35.45;25.62;100829.25;5066673;28;20043;-84
2022/06/28 08:31:58;;;;;;;8.25;3.30;;;;;;;35.56;26.30;100823.34;5051963;28;20025;-84
2022/06/28 08:34:24;;;;;;;15.57;3.10;;;;;;;35.78;25.58;100823.25;5051603;28;20175;-84
2022/06/28 08:36:49;;;;;;;23.02;3.60;;;;;;;36.39;24.94;100822.47;5019485;28;20032;-87
2022/06/28 08:39:15;;;;;;;9.38;2.72;;;;;;;37.07;23.41;100817.03;5034521;28;20041;-85
2022/06/28 08:41:41;;;;;;;7.05;2.70;;;;;;;37.11;23.24;100807.63;5054227;28;20029;-84
2022/06/28 08:44:07;;;;;;;8.48;3.10;;;;;;;37.42;23.33;100808.41;5054030;28;20499;-86
2022/06/28 08:46:32;;;;;;;13.00;3.30;;;;;;;37.36;22.35;100799.41;5050735;28;20052;-85
2022/06/28 08:49:12;;;;;;;6.20;2.67;;;;;;;37.34;22.83;100801.72;5040456;28;20552;-85
2022/06/28 08:51:38;;;;;;;5.78;2.90;;;;;;;37.66;22.26;100796.59;5026268;28;20033;-84
2022/06/28 08:54:04;;;;;;;12.43;2.92;;;;;;;37.67;21.66;100803.84;5040617;28;20518;-84
2022/06/28 08:56:29;;;;;;;9.38;3.78;;;;;;;37.94;22.09;100803.28;5056031;28;20140;-85
2022/06/28 08:58:59;;;;;;;4.63;3.17;;;;;;;37.74;21.94;100804.09;5039002;28;20044;-85
2022/06/28 09:01:25;;;;;;;15.45;2.78;;;;;;;37.92;21.42;100788.78;5032103;28;20068;-84
2022/06/28 09:03:51;;;;;;;9.60;3.00;;;;;;;37.96;21.89;100795.34;5049594;28;20039;-85
2022/06/28 09:06:17;;;;;;;9.45;3.10;;;;;;;37.82;22.13;100794.00;5050589;28;20044;-84
2022/06/28 09:08:43;;;;;;;9.18;3.10;;;;;;;38.13;21.74;100794.41;5034150;28;20041;-84
2022/06/28 09:11:08;;;;;;;7.53;2.92;;;;;;;38.27;21.13;100782.06;5032251;28;20048;-84
2022/06/28 09:13:37;;;;;;;11.05;3.05;;;;;;;38.29;21.53;100788.97;5041846;28;20079;-85
2022/06/28 09:16:04;;;;;;;5.63;3.08;;;;;;;37.94;22.15;100775.25;5038013;28;20033;-84
2022/06/28 09:18:35;;;;;;;9.65;2.85;;;;;;;37.99;22.43;100783.44;5054568;28;20064;-86
2022/06/28 09:21:05;;;;;;;10.60;3.20;;;;;;;37.52;23.13;100786.44;5053375;28;20043;-84
2022/06/28 09:23:35;;;;;;;14.77;2.80;;;;;;;37.95;21.86;100779.66;5016450;28;20037;-84
2022/06/28 09:26:06;;;;;;;10.93;3.10;;;;;;;37.13;25.27;100788.47;5033544;28;20037;-84
2022/06/28 09:28:33;;;;;;;7.55;3.20;;;;;;;36.13;27.37;100786.94;5033055;28;20029;-85
2022/06/28 09:31:16;;;;;;;7.43;3.05;;;;;;;36.01;26.64;100772.75;5062213;28;20461;-86
2022/06/28 09:34:04;;;;;;;18.88;3.10;;;;;;;35.89;28.07;100779.84;5043075;28;20037;-85
2022/06/28 09:36:32;;;;;;;14.02;3.20;;;;;;;36.67;25.19;100781.72;5050890;28;20036;-83
2022/06/28 09:39:01;;;;;;;8.73;3.15;;;;;;;36.45;24.46;100765.94;5054993;28;20104;-84
2022/06/28 09:41:28;;;;;;;8.38;5.28;;;;;;;36.16;23.91;100772.28;5067744;28;20048;-83
2022/06/28 09:43:55;;;;;;;9.77;4.38;;;;;;;36.86;22.41;100758.09;5051785;28;20036;-85
2022/06/28 09:46:23;;;;;;;9.02;3.75;;;;;;;36.40;24.16;100770.91;5051024;28;20059;-85
2022/06/28 09:48:48;;;;;;;6.95;3.33;;;;;;;36.59;24.44;100765.78;5013685;28;20461;-84
2022/06/28 09:51:23;;;;;;;5.97;3.90;;;;;;;36.44;25.16;100767.13;5049062;28;20083;-84
2022/06/28 09:53:51;;;;;;;8.82;4.32;;;;;;;36.33;25.18;100760.22;5034275;28;20132;-84
2022/06/28 09:56:17;;;;;;;8.82;4.20;;;;;;;36.08;25.93;100756.28;5049091;28;20048;-84
2022/06/28 09:58:42;;;;;;;7.90;3.20;;;;;;;36.11;25.00;100764.88;5003034;28;20068;-84
2022/06/28 10:01:08;;;;;;;7.35;3.40;;;;;;;36.05;25.55;100748.56;5050209;28;20036;-86
2022/06/28 10:03:33;;;;;;;9.80;3.30;;;;;;;35.98;25.72;100751.03;5050763;28;20500;-85
2022/06/28 10:05:59;;;;;;;7.57;3.20;;;;;;;36.56;24.43;100744.84;5050896;28;20456;-84
2022/06/28 10:08:24;;;;;;;10.38;3.63;;;;;;;36.59;24.62;100743.38;5035941;28;20038;-84
2022/06/28 10:10:51;;;;;;;7.40;3.30;;;;;;;36.02;24.87;100746.41;5050615;28;20040;-84
2022/06/28 10:16:10;;;;;;;23.00;4.13;;;;;;;35.48;26.25;100738.34;5049158;28;20071;-86
2022/06/28 10:18:35;;;;;;;;;;;;;;;35.30;26.41;100740.28;5043182;28;20063;-89
2022/06/28 10:21:02;;;;;;;9.75;3.90;;;;;;;35.04;26.73;100740.19;5049533;28;19913;-85
2022/06/28 10:23:28;;;;;;;7.35;3.80;;;;;;;34.62;27.14;100729.34;5019740;28;20040;-91
2022/06/28 10:26:02;;;;;;;8.48;3.33;;;;;;;34.35;27.19;100707.19;5041260;28;20083;-86
2022/06/28 10:28:37;;;;;;;15.00;4.30;;;;;;;35.35;26.75;100733.72;5050355;28;20098;-88
2022/06/28 10:31:23;;;;;;;9.80;3.13;;;;;;;37.10;23.81;100730.31;5069866;28;20021;-84
2022/06/28 10:33:54;;;;;;;11.10;3.72;;;;;;;36.50;25.03;100722.94;5045076;28;20124;-83
2022/06/28 10:36:23;;;;;;;8.02;3.30;;;;;;;36.27;24.86;100709.22;5045213;28;20152;-90
2022/06/28 10:39:20;;;;;;;8.68;3.28;;;;;;;36.17;24.69;100709.53;5023942;28;20096;-85
2022/06/28 10:41:53;;;;;;;5.47;3.45;;;;;;;36.92;24.30;100703.50;5036914;28;20021;-84
2022/06/28 10:44:39;;;;;;;14.68;3.92;;;;;;;36.64;25.31;100701.19;5053404;28;20112;-84
2022/06/28 10:47:07;;;;;;;7.63;3.60;;;;;;;36.34;25.52;100709.50;5043989;28;20048;-85
2022/06/28 10:49:42;;;;;;;12.18;4.25;;;;;;;35.96;26.23;100714.97;5048849;28;20037;-84
2022/06/28 10:52:33;;;;;;;9.43;3.63;;;;;;;35.51;26.06;100693.75;5044500;28;20056;-85
2022/06/28 10:54:59;;;;;;;5.22;3.50;;;;;;;34.87;27.51;100704.66;5015324;28;20048;-85
2022/06/28 10:57:31;;;;;;;8.07;3.55;;;;;;;34.88;27.65;100701.53;5048439;28;20417;-87
2022/06/28 11:00:04;;;;;;;10.07;3.90;;;;;;;34.55;27.67;100705.81;5019791;28;20044;-85
2022/06/28 11:02:51;;;;;;;10.82;3.60;;;;;;;34.25;28.08;100697.97;5028358;28;20474;-85
2022/06/28 11:05:19;;;;;;;6.72;3.78;;;;;;;34.00;28.53;100695.81;5049326;28;20117;-85
2022/06/28 11:08:01;;;;;;;13.13;3.55;;;;;;;33.82;28.63;100692.88;5048568;28;20029;-83
2022/06/28 11:10:27;;;;;;;9.68;3.85;;;;;;;33.71;28.78;100680.34;5013663;28;20037;-84
2022/06/28 11:12:52;;;;;;;14.85;3.85;;;;;;;33.45;29.38;100684.84;5049125;28;20052;-83
2022/06/28 11:15:27;;;;;;;9.88;3.60;;;;;;;33.30;29.43;100695.22;5049302;28;20098;-84
2022/06/28 11:17:52;;;;;;;10.10;3.58;;;;;;;33.32;29.74;100690.16;5047148;28;20033;-83
2022/06/28 11:20:24;;;;;;;34.33;4.93;;;;;;;33.35;29.79;100685.91;5049846;28;20040;-83
2022/06/28 11:22:50;;;;;;;15.32;4.20;;;;;;;33.57;29.82;100690.72;5050317;28;20469;-85
2022/06/28 11:25:21;;;;;;;14.48;4.40;;;;;;;33.45;30.90;100701.56;5048991;28;20037;-84
2022/06/28 11:27:52;;;;;;;10.70;4.15;;;;;;;33.26;31.89;100693.38;5058920;28;20029;-86
2022/06/28 11:30:18;;;;;;;11.80;4.40;;;;;;;32.97;32.28;100700.91;5020164;28;20102;-86
2022/06/28 11:32:45;;;;;;;8.85;4.35;;;;;;;32.90;32.44;100708.84;5067800;28;20032;-85
2022/06/28 11:35:10;;;;;;;8.73;3.97;;;;;;;32.88;32.81;100707.53;5034337;28;20048;-85
2022/06/28 11:37:58;;;;;;;16.70;4.43;;;;;;;33.14;32.29;100705.03;5044556;28;20034;-85